sensor_id;sensor_type;location;lat;lon;timestamp;P1;P2;P0
42410;PMS5003;28056;51.112;0.984;2022-07-29T00:00:24;4;4;
42410;PMS5003;28056;51.112;0.984;2022-07-29T00:04:48;6;5;
42410;PMS5003;28056;51.112;0.984;2022-07-29T00:07:15;9;6;
42410;PMS5003;28056;51.112;0.984;2022-07-29T00:09:43;5;5;
42410;PMS5003;28056;51.112;0.984;2022-07-29T00:12:10;8;6;
42410;PMS5003;28056;51.112;0.984;2022-07-29T00:14:38;7;6;
42410;PMS5003;28056;51.112;0.984;2022-07-29T00:17:06;6;6;
42410;PMS5003;28056;51.112;0.984;2022-07-29T00:19:33;6;4;
42410;PMS5003;28056;51.112;0.984;2022-07-29T00:22:01;4;4;
42410;PMS5003;28056;51.112;0.984;2022-07-29T00:24:29;6;5;
42410;PMS5003;28056;51.112;0.984;2022-07-29T00:26:56;6;5;
42410;PMS5003;28056;51.112;0.984;2022-07-29T00:29:24;7;6;
42410;PMS5003;28056;51.112;0.984;2022-07-29T00:31:52;6;6;
42410;PMS5003;28056;51.112;0.984;2022-07-29T00:34:19;5;5;
42410;PMS5003;28056;51.112;0.984;2022-07-29T00:36:47;5;5;
42410;PMS5003;28056;51.112;0.984;2022-07-29T00:39:15;7;5;
42410;PMS5003;28056;51.112;0.984;2022-07-29T00:41:42;7;4;
42410;PMS5003;28056;51.112;0.984;2022-07-29T00:44:10;5;5;
42410;PMS5003;28056;51.112;0.984;2022-07-29T00:46:39;8;7;
42410;PMS5003;28056;51.112;0.984;2022-07-29T00:49:06;4;4;
42410;PMS5003;28056;51.112;0.984;2022-07-29T00:51:34;4;4;
42410;PMS5003;28056;51.112;0.984;2022-07-29T00:54:03;4;4;
42410;PMS5003;28056;51.112;0.984;2022-07-29T00:56:31;4;4;
42410;PMS5003;28056;51.112;0.984;2022-07-29T00:58:59;7;6;
42410;PMS5003;28056;51.112;0.984;2022-07-29T01:01:26;4;4;
42410;PMS5003;28056;51.112;0.984;2022-07-29T01:03:54;5;5;
42410;PMS5003;28056;51.112;0.984;2022-07-29T01:06:22;4;4;
42410;PMS5003;28056;51.112;0.984;2022-07-29T01:08:50;6;4;
42410;PMS5003;28056;51.112;0.984;2022-07-29T01:11:18;5;5;
42410;PMS5003;28056;51.112;0.984;2022-07-29T01:13:46;6;6;
42410;PMS5003;28056;51.112;0.984;2022-07-29T01:16:16;4;4;
42410;PMS5003;28056;51.112;0.984;2022-07-29T01:18:49;4;4;
42410;PMS5003;28056;51.112;0.984;2022-07-29T01:21:27;5;5;
42410;PMS5003;28056;51.112;0.984;2022-07-29T01:24:14;3;3;
42410;PMS5003;28056;51.112;0.984;2022-07-29T01:27:03;4;4;
42410;PMS5003;28056;51.112;0.984;2022-07-29T01:29:43;8;7;
42410;PMS5003;28056;51.112;0.984;2022-07-29T01:32:18;6;5;
42410;PMS5003;28056;51.112;0.984;2022-07-29T01:34:50;6;4;
42410;PMS5003;28056;51.112;0.984;2022-07-29T01:37:21;4;4;
42410;PMS5003;28056;51.112;0.984;2022-07-29T01:39:54;5;5;
42410;PMS5003;28056;51.112;0.984;2022-07-29T01:42:26;4;4;
42410;PMS5003;28056;51.112;0.984;2022-07-29T01:45:00;8;5;
42410;PMS5003;28056;51.112;0.984;2022-07-29T01:47:41;5;4;
42410;PMS5003;28056;51.112;0.984;2022-07-29T01:50:14;5;5;
42410;PMS5003;28056;51.112;0.984;2022-07-29T01:52:45;3;3;
42410;PMS5003;28056;51.112;0.984;2022-07-29T01:55:20;4;4;
42410;PMS5003;28056;51.112;0.984;2022-07-29T01:57:52;5;5;
42410;PMS5003;28056;51.112;0.984;2022-07-29T02:00:22;5;5;
42410;PMS5003;28056;51.112;0.984;2022-07-29T02:02:51;6;6;
42410;PMS5003;28056;51.112;0.984;2022-07-29T02:05:21;6;5;
42410;PMS5003;28056;51.112;0.984;2022-07-29T02:07:52;6;5;
42410;PMS5003;28056;51.112;0.984;2022-07-29T02:10:23;8;7;
42410;PMS5003;28056;51.112;0.984;2022-07-29T02:12:53;7;6;
42410;PMS5003;28056;51.112;0.984;2022-07-29T02:15:24;7;6;
42410;PMS5003;28056;51.112;0.984;2022-07-29T02:17:54;8;7;
42410;PMS5003;28056;51.112;0.984;2022-07-29T02:20:26;7;7;
42410;PMS5003;28056;51.112;0.984;2022-07-29T02:22:57;7;6;
42410;PMS5003;28056;51.112;0.984;2022-07-29T02:25:27;7;6;
42410;PMS5003;28056;51.112;0.984;2022-07-29T02:27:56;5;5;
42410;PMS5003;28056;51.112;0.984;2022-07-29T02:30:25;5;5;
42410;PMS5003;28056;51.112;0.984;2022-07-29T02:32:55;5;5;
42410;PMS5003;28056;51.112;0.984;2022-07-29T02:35:25;5;5;
42410;PMS5003;28056;51.112;0.984;2022-07-29T02:37:53;6;6;
42410;PMS5003;28056;51.112;0.984;2022-07-29T02:40:21;7;4;
42410;PMS5003;28056;51.112;0.984;2022-07-29T02:42:49;6;5;
42410;PMS5003;28056;51.112;0.984;2022-07-29T02:45:17;6;6;
42410;PMS5003;28056;51.112;0.984;2022-07-29T02:47:46;7;6;
42410;PMS5003;28056;51.112;0.984;2022-07-29T02:50:17;5;5;
42410;PMS5003;28056;51.112;0.984;2022-07-29T02:52:54;7;5;
42410;PMS5003;28056;51.112;0.984;2022-07-29T02:55:26;7;6;
42410;PMS5003;28056;51.112;0.984;2022-07-29T02:57:58;5;5;
42410;PMS5003;28056;51.112;0.984;2022-07-29T03:00:29;7;5;
42410;PMS5003;28056;51.112;0.984;2022-07-29T03:02:59;6;6;
42410;PMS5003;28056;51.112;0.984;2022-07-29T03:05:30;7;5;
42410;PMS5003;28056;51.112;0.984;2022-07-29T03:08:00;9;6;
42410;PMS5003;28056;51.112;0.984;2022-07-29T03:10:29;6;6;
42410;PMS5003;28056;51.112;0.984;2022-07-29T03:12:57;5;4;
42410;PMS5003;28056;51.112;0.984;2022-07-29T03:15:26;6;5;
42410;PMS5003;28056;51.112;0.984;2022-07-29T03:17:54;6;6;
42410;PMS5003;28056;51.112;0.984;2022-07-29T03:20:22;5;5;
42410;PMS5003;28056;51.112;0.984;2022-07-29T03:22:50;4;4;
42410;PMS5003;28056;51.112;0.984;2022-07-29T03:25:18;4;4;
42410;PMS5003;28056;51.112;0.984;2022-07-29T03:27:47;4;4;
42410;PMS5003;28056;51.112;0.984;2022-07-29T03:30:15;5;4;
42410;PMS5003;28056;51.112;0.984;2022-07-29T03:32:42;4;3;
42410;PMS5003;28056;51.112;0.984;2022-07-29T03:35:10;4;4;
42410;PMS5003;28056;51.112;0.984;2022-07-29T03:37:40;4;4;
42410;PMS5003;28056;51.112;0.984;2022-07-29T03:40:08;5;5;
42410;PMS5003;28056;51.112;0.984;2022-07-29T03:42:40;5;5;
42410;PMS5003;28056;51.112;0.984;2022-07-29T03:45:11;5;5;
42410;PMS5003;28056;51.112;0.984;2022-07-29T03:47:43;5;5;
42410;PMS5003;28056;51.112;0.984;2022-07-29T03:50:15;5;5;
42410;PMS5003;28056;51.112;0.984;2022-07-29T03:52:43;6;6;
42410;PMS5003;28056;51.112;0.984;2022-07-29T03:55:12;6;6;
42410;PMS5003;28056;51.112;0.984;2022-07-29T03:57:40;5;5;
42410;PMS5003;28056;51.112;0.984;2022-07-29T04:00:09;4;4;
42410;PMS5003;28056;51.112;0.984;2022-07-29T04:02:37;4;4;
42410;PMS5003;28056;51.112;0.984;2022-07-29T04:05:11;4;2;
42410;PMS5003;28056;51.112;0.984;2022-07-29T04:07:39;6;4;
42410;PMS5003;28056;51.112;0.984;2022-07-29T04:10:07;4;4;
42410;PMS5003;28056;51.112;0.984;2022-07-29T04:12:35;7;6;
42410;PMS5003;28056;51.112;0.984;2022-07-29T04:15:03;4;4;
42410;PMS5003;28056;51.112;0.984;2022-07-29T04:17:30;4;4;
42410;PMS5003;28056;51.112;0.984;2022-07-29T04:19:58;7;6;
42410;PMS5003;28056;51.112;0.984;2022-07-29T04:22:26;7;6;
42410;PMS5003;28056;51.112;0.984;2022-07-29T04:24:53;7;7;
42410;PMS5003;28056;51.112;0.984;2022-07-29T04:27:21;7;7;
42410;PMS5003;28056;51.112;0.984;2022-07-29T04:29:49;10;6;
42410;PMS5003;28056;51.112;0.984;2022-07-29T04:32:17;6;6;
42410;PMS5003;28056;51.112;0.984;2022-07-29T04:34:44;6;6;
42410;PMS5003;28056;51.112;0.984;2022-07-29T04:37:12;6;6;
42410;PMS5003;28056;51.112;0.984;2022-07-29T04:39:40;6;6;
42410;PMS5003;28056;51.112;0.984;2022-07-29T04:42:07;6;6;
42410;PMS5003;28056;51.112;0.984;2022-07-29T04:44:35;7;5;
42410;PMS5003;28056;51.112;0.984;2022-07-29T04:47:03;6;4;
42410;PMS5003;28056;51.112;0.984;2022-07-29T04:49:34;5;5;
42410;PMS5003;28056;51.112;0.984;2022-07-29T04:52:04;12;6;
42410;PMS5003;28056;51.112;0.984;2022-07-29T04:54:32;6;6;
42410;PMS5003;28056;51.112;0.984;2022-07-29T04:56:59;5;5;
42410;PMS5003;28056;51.112;0.984;2022-07-29T04:59:27;6;6;
42410;PMS5003;28056;51.112;0.984;2022-07-29T05:01:54;4;4;
42410;PMS5003;28056;51.112;0.984;2022-07-29T05:04:22;7;4;
42410;PMS5003;28056;51.112;0.984;2022-07-29T05:06:50;4;4;
42410;PMS5003;28056;51.112;0.984;2022-07-29T05:09:18;4;4;
42410;PMS5003;28056;51.112;0.984;2022-07-29T05:11:46;4;4;
42410;PMS5003;28056;51.112;0.984;2022-07-29T05:14:13;8;5;
42410;PMS5003;28056;51.112;0.984;2022-07-29T05:16:41;7;6;
42410;PMS5003;28056;51.112;0.984;2022-07-29T05:19:09;6;6;
42410;PMS5003;28056;51.112;0.984;2022-07-29T05:21:37;6;6;
42410;PMS5003;28056;51.112;0.984;2022-07-29T05:24:04;6;6;
42410;PMS5003;28056;51.112;0.984;2022-07-29T05:26:31;6;6;
42410;PMS5003;28056;51.112;0.984;2022-07-29T05:28:59;5;5;
42410;PMS5003;28056;51.112;0.984;2022-07-29T05:31:27;7;6;
42410;PMS5003;28056;51.112;0.984;2022-07-29T05:33:54;6;6;
42410;PMS5003;28056;51.112;0.984;2022-07-29T05:36:22;5;5;
42410;PMS5003;28056;51.112;0.984;2022-07-29T05:38:50;5;5;
42410;PMS5003;28056;51.112;0.984;2022-07-29T05:41:17;6;6;
42410;PMS5003;28056;51.112;0.984;2022-07-29T05:43:45;5;5;
42410;PMS5003;28056;51.112;0.984;2022-07-29T05:46:13;5;5;
42410;PMS5003;28056;51.112;0.984;2022-07-29T05:48:40;7;7;
42410;PMS5003;28056;51.112;0.984;2022-07-29T05:51:08;6;6;
42410;PMS5003;28056;51.112;0.984;2022-07-29T05:53:36;5;5;
42410;PMS5003;28056;51.112;0.984;2022-07-29T05:56:04;7;7;
42410;PMS5003;28056;51.112;0.984;2022-07-29T05:58:32;6;6;
42410;PMS5003;28056;51.112;0.984;2022-07-29T06:00:59;6;6;
42410;PMS5003;28056;51.112;0.984;2022-07-29T06:03:27;7;7;
42410;PMS5003;28056;51.112;0.984;2022-07-29T06:05:55;6;6;
42410;PMS5003;28056;51.112;0.984;2022-07-29T06:08:22;9;7;
42410;PMS5003;28056;51.112;0.984;2022-07-29T06:10:50;6;6;
42410;PMS5003;28056;51.112;0.984;2022-07-29T06:13:18;9;6;
42410;PMS5003;28056;51.112;0.984;2022-07-29T06:15:45;7;7;
42410;PMS5003;28056;51.112;0.984;2022-07-29T06:18:13;9;8;
42410;PMS5003;28056;51.112;0.984;2022-07-29T06:20:40;8;8;
42410;PMS5003;28056;51.112;0.984;2022-07-29T06:23:08;6;6;
42410;PMS5003;28056;51.112;0.984;2022-07-29T06:25:36;6;6;
42410;PMS5003;28056;51.112;0.984;2022-07-29T06:28:03;8;6;
42410;PMS5003;28056;51.112;0.984;2022-07-29T06:30:31;8;7;
42410;PMS5003;28056;51.112;0.984;2022-07-29T06:32:58;8;7;
42410;PMS5003;28056;51.112;0.984;2022-07-29T06:35:26;10;8;
42410;PMS5003;28056;51.112;0.984;2022-07-29T06:37:54;8;7;
42410;PMS5003;28056;51.112;0.984;2022-07-29T06:40:21;8;8;
42410;PMS5003;28056;51.112;0.984;2022-07-29T06:42:49;11;10;
42410;PMS5003;28056;51.112;0.984;2022-07-29T06:45:17;5;5;
42410;PMS5003;28056;51.112;0.984;2022-07-29T06:47:44;7;7;
42410;PMS5003;28056;51.112;0.984;2022-07-29T06:50:12;7;6;
42410;PMS5003;28056;51.112;0.984;2022-07-29T06:52:39;7;7;
42410;PMS5003;28056;51.112;0.984;2022-07-29T06:55:07;4;4;
42410;PMS5003;28056;51.112;0.984;2022-07-29T06:57:35;9;6;
42410;PMS5003;28056;51.112;0.984;2022-07-29T07:00:03;6;6;
42410;PMS5003;28056;51.112;0.984;2022-07-29T07:02:32;5;5;
42410;PMS5003;28056;51.112;0.984;2022-07-29T07:04:59;5;5;
42410;PMS5003;28056;51.112;0.984;2022-07-29T07:07:27;5;5;
42410;PMS5003;28056;51.112;0.984;2022-07-29T07:09:55;6;5;
42410;PMS5003;28056;51.112;0.984;2022-07-29T07:12:22;5;5;
42410;PMS5003;28056;51.112;0.984;2022-07-29T07:14:50;5;5;
42410;PMS5003;28056;51.112;0.984;2022-07-29T07:17:17;7;5;
42410;PMS5003;28056;51.112;0.984;2022-07-29T07:19:45;4;4;
42410;PMS5003;28056;51.112;0.984;2022-07-29T07:22:12;7;5;
42410;PMS5003;28056;51.112;0.984;2022-07-29T07:24:40;6;6;
42410;PMS5003;28056;51.112;0.984;2022-07-29T07:27:07;8;6;
42410;PMS5003;28056;51.112;0.984;2022-07-29T07:29:35;9;6;
42410;PMS5003;28056;51.112;0.984;2022-07-29T07:32:03;5;5;
42410;PMS5003;28056;51.112;0.984;2022-07-29T07:34:30;7;7;
42410;PMS5003;28056;51.112;0.984;2022-07-29T07:36:58;6;6;
42410;PMS5003;28056;51.112;0.984;2022-07-29T07:39:25;8;8;
42410;PMS5003;28056;51.112;0.984;2022-07-29T07:41:53;7;7;
42410;PMS5003;28056;51.112;0.984;2022-07-29T07:44:20;6;6;
42410;PMS5003;28056;51.112;0.984;2022-07-29T07:46:48;8;8;
42410;PMS5003;28056;51.112;0.984;2022-07-29T07:49:15;7;7;
42410;PMS5003;28056;51.112;0.984;2022-07-29T07:51:43;8;8;
42410;PMS5003;28056;51.112;0.984;2022-07-29T07:54:11;10;10;
42410;PMS5003;28056;51.112;0.984;2022-07-29T07:56:38;10;9;
42410;PMS5003;28056;51.112;0.984;2022-07-29T07:59:07;13;9;
42410;PMS5003;28056;51.112;0.984;2022-07-29T08:01:34;7;7;
42410;PMS5003;28056;51.112;0.984;2022-07-29T08:04:02;10;8;
42410;PMS5003;28056;51.112;0.984;2022-07-29T08:06:29;8;8;
42410;PMS5003;28056;51.112;0.984;2022-07-29T08:08:57;6;6;
42410;PMS5003;28056;51.112;0.984;2022-07-29T08:11:24;8;8;
42410;PMS5003;28056;51.112;0.984;2022-07-29T08:13:52;10;10;
42410;PMS5003;28056;51.112;0.984;2022-07-29T08:16:20;10;10;
42410;PMS5003;28056;51.112;0.984;2022-07-29T08:18:47;9;9;
42410;PMS5003;28056;51.112;0.984;2022-07-29T08:21:15;15;12;
42410;PMS5003;28056;51.112;0.984;2022-07-29T08:23:43;13;10;
42410;PMS5003;28056;51.112;0.984;2022-07-29T08:26:11;10;9;
42410;PMS5003;28056;51.112;0.984;2022-07-29T08:28:39;8;8;
42410;PMS5003;28056;51.112;0.984;2022-07-29T08:31:08;14;11;
42410;PMS5003;28056;51.112;0.984;2022-07-29T08:33:36;7;7;
42410;PMS5003;28056;51.112;0.984;2022-07-29T08:36:04;13;12;
42410;PMS5003;28056;51.112;0.984;2022-07-29T08:38:31;12;10;
42410;PMS5003;28056;51.112;0.984;2022-07-29T08:41:00;12;8;
42410;PMS5003;28056;51.112;0.984;2022-07-29T08:43:27;10;8;
42410;PMS5003;28056;51.112;0.984;2022-07-29T08:45:56;10;7;
42410;PMS5003;28056;51.112;0.984;2022-07-29T08:48:23;9;8;
42410;PMS5003;28056;51.112;0.984;2022-07-29T08:50:52;12;9;
42410;PMS5003;28056;51.112;0.984;2022-07-29T08:53:21;7;7;
42410;PMS5003;28056;51.112;0.984;2022-07-29T08:55:52;8;8;
42410;PMS5003;28056;51.112;0.984;2022-07-29T08:58:20;7;7;
42410;PMS5003;28056;51.112;0.984;2022-07-29T09:00:49;7;7;
42410;PMS5003;28056;51.112;0.984;2022-07-29T09:03:19;7;7;
42410;PMS5003;28056;51.112;0.984;2022-07-29T09:05:49;9;6;
42410;PMS5003;28056;51.112;0.984;2022-07-29T09:08:17;7;7;
42410;PMS5003;28056;51.112;0.984;2022-07-29T09:10:51;8;7;
42410;PMS5003;28056;51.112;0.984;2022-07-29T09:13:20;6;6;
42410;PMS5003;28056;51.112;0.984;2022-07-29T09:15:48;7;7;
42410;PMS5003;28056;51.112;0.984;2022-07-29T09:18:31;6;6;
42410;PMS5003;28056;51.112;0.984;2022-07-29T09:21:04;8;5;
42410;PMS5003;28056;51.112;0.984;2022-07-29T09:23:32;6;6;
42410;PMS5003;28056;51.112;0.984;2022-07-29T09:26:00;6;6;
42410;PMS5003;28056;51.112;0.984;2022-07-29T09:28:32;5;5;
42410;PMS5003;28056;51.112;0.984;2022-07-29T09:30:59;7;6;
42410;PMS5003;28056;51.112;0.984;2022-07-29T09:33:32;6;6;
42410;PMS5003;28056;51.112;0.984;2022-07-29T09:36:00;9;7;
42410;PMS5003;28056;51.112;0.984;2022-07-29T09:38:30;7;5;
42410;PMS5003;28056;51.112;0.984;2022-07-29T09:40:57;7;6;
42410;PMS5003;28056;51.112;0.984;2022-07-29T09:43:26;7;7;
42410;PMS5003;28056;51.112;0.984;2022-07-29T09:45:54;7;6;
42410;PMS5003;28056;51.112;0.984;2022-07-29T09:48:22;6;6;
42410;PMS5003;28056;51.112;0.984;2022-07-29T09:50:50;6;5;
42410;PMS5003;28056;51.112;0.984;2022-07-29T09:53:29;7;5;
42410;PMS5003;28056;51.112;0.984;2022-07-29T09:55:58;7;7;
42410;PMS5003;28056;51.112;0.984;2022-07-29T09:58:27;9;7;
42410;PMS5003;28056;51.112;0.984;2022-07-29T10:00:55;6;6;
42410;PMS5003;28056;51.112;0.984;2022-07-29T10:03:22;6;6;
42410;PMS5003;28056;51.112;0.984;2022-07-29T10:06:04;8;6;
42410;PMS5003;28056;51.112;0.984;2022-07-29T10:08:34;8;6;
42410;PMS5003;28056;51.112;0.984;2022-07-29T10:11:10;4;4;
42410;PMS5003;28056;51.112;0.984;2022-07-29T10:13:38;6;6;
42410;PMS5003;28056;51.112;0.984;2022-07-29T10:16:06;7;6;
42410;PMS5003;28056;51.112;0.984;2022-07-29T10:18:35;5;5;
42410;PMS5003;28056;51.112;0.984;2022-07-29T10:21:03;5;5;
42410;PMS5003;28056;51.112;0.984;2022-07-29T10:23:31;5;5;
42410;PMS5003;28056;51.112;0.984;2022-07-29T10:25:59;6;4;
42410;PMS5003;28056;51.112;0.984;2022-07-29T10:28:28;5;5;
42410;PMS5003;28056;51.112;0.984;2022-07-29T10:31:00;6;6;
42410;PMS5003;28056;51.112;0.984;2022-07-29T10:33:36;6;5;
42410;PMS5003;28056;51.112;0.984;2022-07-29T10:36:19;5;5;
42410;PMS5003;28056;51.112;0.984;2022-07-29T10:38:55;6;6;
42410;PMS5003;28056;51.112;0.984;2022-07-29T10:41:49;5;5;
42410;PMS5003;28056;51.112;0.984;2022-07-29T10:44:28;3;3;
42410;PMS5003;28056;51.112;0.984;2022-07-29T10:46:56;4;4;
42410;PMS5003;28056;51.112;0.984;2022-07-29T10:49:24;4;4;
42410;PMS5003;28056;51.112;0.984;2022-07-29T10:51:54;5;4;
42410;PMS5003;28056;51.112;0.984;2022-07-29T10:54:36;4;4;
42410;PMS5003;28056;51.112;0.984;2022-07-29T10:57:15;5;5;
42410;PMS5003;28056;51.112;0.984;2022-07-29T10:59:43;7;5;
42410;PMS5003;28056;51.112;0.984;2022-07-29T11:02:44;3;3;
42410;PMS5003;28056;51.112;0.984;2022-07-29T11:05:12;5;5;
42410;PMS5003;28056;51.112;0.984;2022-07-29T11:08:16;7;4;
42410;PMS5003;28056;51.112;0.984;2022-07-29T11:10:46;5;5;
42410;PMS5003;28056;51.112;0.984;2022-07-29T11:13:44;4;4;
42410;PMS5003;28056;51.112;0.984;2022-07-29T11:16:13;5;5;
42410;PMS5003;28056;51.112;0.984;2022-07-29T11:19:46;5;4;
42410;PMS5003;28056;51.112;0.984;2022-07-29T11:22:31;1;1;
42410;PMS5003;28056;51.112;0.984;2022-07-29T11:25:12;3;3;
42410;PMS5003;28056;51.112;0.984;2022-07-29T11:27:40;5;4;
42410;PMS5003;28056;51.112;0.984;2022-07-29T11:30:08;5;4;
42410;PMS5003;28056;51.112;0.984;2022-07-29T11:32:36;4;4;
42410;PMS5003;28056;51.112;0.984;2022-07-29T11:35:21;3;3;
42410;PMS5003;28056;51.112;0.984;2022-07-29T11:41:19;5;3;
42410;PMS5003;28056;51.112;0.984;2022-07-29T11:43:47;6;4;
42410;PMS5003;28056;51.112;0.984;2022-07-29T11:46:14;6;3;
42410;PMS5003;28056;51.112;0.984;2022-07-29T11:48:42;3;3;
42410;PMS5003;28056;51.112;0.984;2022-07-29T11:51:11;4;3;
42410;PMS5003;28056;51.112;0.984;2022-07-29T11:53:38;6;5;
42410;PMS5003;28056;51.112;0.984;2022-07-29T11:56:08;3;3;
42410;PMS5003;28056;51.112;0.984;2022-07-29T11:58:39;3;3;
42410;PMS5003;28056;51.112;0.984;2022-07-29T12:01:06;1;1;
42410;PMS5003;28056;51.112;0.984;2022-07-29T12:03:33;3;3;
42410;PMS5003;28056;51.112;0.984;2022-07-29T12:06:01;5;3;
42410;PMS5003;28056;51.112;0.984;2022-07-29T12:08:29;3;3;
42410;PMS5003;28056;51.112;0.984;2022-07-29T12:10:56;2;2;
42410;PMS5003;28056;51.112;0.984;2022-07-29T12:13:24;2;2;
42410;PMS5003;28056;51.112;0.984;2022-07-29T12:15:51;3;3;
42410;PMS5003;28056;51.112;0.984;2022-07-29T12:18:20;4;3;
42410;PMS5003;28056;51.112;0.984;2022-07-29T12:20:47;1;1;
42410;PMS5003;28056;51.112;0.984;2022-07-29T12:23:22;2;2;
42410;PMS5003;28056;51.112;0.984;2022-07-29T12:25:50;3;3;
42410;PMS5003;28056;51.112;0.984;2022-07-29T12:28:24;3;3;
42410;PMS5003;28056;51.112;0.984;2022-07-29T12:30:52;2;2;
42410;PMS5003;28056;51.112;0.984;2022-07-29T12:33:20;3;3;
42410;PMS5003;28056;51.112;0.984;2022-07-29T12:35:49;2;2;
42410;PMS5003;28056;51.112;0.984;2022-07-29T12:38:18;3;3;
42410;PMS5003;28056;51.112;0.984;2022-07-29T12:40:47;3;3;
42410;PMS5003;28056;51.112;0.984;2022-07-29T12:43:16;3;3;
42410;PMS5003;28056;51.112;0.984;2022-07-29T12:45:45;2;2;
42410;PMS5003;28056;51.112;0.984;2022-07-29T12:48:14;1;1;
42410;PMS5003;28056;51.112;0.984;2022-07-29T12:51:02;3;3;
42410;PMS5003;28056;51.112;0.984;2022-07-29T12:53:31;3;3;
42410;PMS5003;28056;51.112;0.984;2022-07-29T12:55:58;1;1;
42410;PMS5003;28056;51.112;0.984;2022-07-29T12:58:29;3;3;
42410;PMS5003;28056;51.112;0.984;2022-07-29T13:01:00;5;2;
42410;PMS5003;28056;51.112;0.984;2022-07-29T13:03:29;2;2;
42410;PMS5003;28056;51.112;0.984;2022-07-29T13:06:27;3;3;
42410;PMS5003;28056;51.112;0.984;2022-07-29T13:09:00;1;1;
42410;PMS5003;28056;51.112;0.984;2022-07-29T13:11:30;4;3;
42410;PMS5003;28056;51.112;0.984;2022-07-29T13:13:58;1;1;
42410;PMS5003;28056;51.112;0.984;2022-07-29T13:16:26;2;2;
42410;PMS5003;28056;51.112;0.984;2022-07-29T13:19:10;3;3;
42410;PMS5003;28056;51.112;0.984;2022-07-29T13:21:39;3;2;
42410;PMS5003;28056;51.112;0.984;2022-07-29T13:24:06;3;3;
42410;PMS5003;28056;51.112;0.984;2022-07-29T13:26:34;1;1;
42410;PMS5003;28056;51.112;0.984;2022-07-29T13:29:06;2;2;
42410;PMS5003;28056;51.112;0.984;2022-07-29T13:31:33;3;3;
42410;PMS5003;28056;51.112;0.984;2022-07-29T13:34:00;3;3;
42410;PMS5003;28056;51.112;0.984;2022-07-29T13:36:28;2;2;
42410;PMS5003;28056;51.112;0.984;2022-07-29T13:38:55;2;2;
42410;PMS5003;28056;51.112;0.984;2022-07-29T13:41:22;3;3;
42410;PMS5003;28056;51.112;0.984;2022-07-29T13:43:50;2;2;
42410;PMS5003;28056;51.112;0.984;2022-07-29T13:46:17;2;2;
42410;PMS5003;28056;51.112;0.984;2022-07-29T13:48:44;2;2;
42410;PMS5003;28056;51.112;0.984;2022-07-29T13:51:12;3;3;
42410;PMS5003;28056;51.112;0.984;2022-07-29T13:53:39;3;2;
42410;PMS5003;28056;51.112;0.984;2022-07-29T13:56:06;7;1;
42410;PMS5003;28056;51.112;0.984;2022-07-29T13:58:34;4;2;
42410;PMS5003;28056;51.112;0.984;2022-07-29T14:01:01;4;3;
42410;PMS5003;28056;51.112;0.984;2022-07-29T14:03:28;4;4;
42410;PMS5003;28056;51.112;0.984;2022-07-29T14:05:55;4;3;
42410;PMS5003;28056;51.112;0.984;2022-07-29T14:08:23;3;3;
42410;PMS5003;28056;51.112;0.984;2022-07-29T14:10:50;2;2;
42410;PMS5003;28056;51.112;0.984;2022-07-29T14:13:17;3;3;
42410;PMS5003;28056;51.112;0.984;2022-07-29T14:15:45;4;2;
42410;PMS5003;28056;51.112;0.984;2022-07-29T14:18:12;5;3;
42410;PMS5003;28056;51.112;0.984;2022-07-29T14:20:39;3;3;
42410;PMS5003;28056;51.112;0.984;2022-07-29T14:23:07;3;3;
42410;PMS5003;28056;51.112;0.984;2022-07-29T14:25:35;4;3;
42410;PMS5003;28056;51.112;0.984;2022-07-29T14:28:02;5;3;
42410;PMS5003;28056;51.112;0.984;2022-07-29T14:30:29;3;1;
42410;PMS5003;28056;51.112;0.984;2022-07-29T14:32:57;2;2;
42410;PMS5003;28056;51.112;0.984;2022-07-29T14:35:24;4;3;
42410;PMS5003;28056;51.112;0.984;2022-07-29T14:37:51;2;2;
42410;PMS5003;28056;51.112;0.984;2022-07-29T14:40:18;3;3;
42410;PMS5003;28056;51.112;0.984;2022-07-29T14:42:46;3;2;
42410;PMS5003;28056;51.112;0.984;2022-07-29T14:45:13;5;3;
42410;PMS5003;28056;51.112;0.984;2022-07-29T14:47:40;3;3;
42410;PMS5003;28056;51.112;0.984;2022-07-29T14:50:08;2;2;
42410;PMS5003;28056;51.112;0.984;2022-07-29T14:52:36;3;3;
42410;PMS5003;28056;51.112;0.984;2022-07-29T14:55:03;7;3;
42410;PMS5003;28056;51.112;0.984;2022-07-29T14:57:31;3;3;
42410;PMS5003;28056;51.112;0.984;2022-07-29T14:59:59;2;2;
42410;PMS5003;28056;51.112;0.984;2022-07-29T15:02:26;3;3;
42410;PMS5003;28056;51.112;0.984;2022-07-29T15:04:53;3;2;
42410;PMS5003;28056;51.112;0.984;2022-07-29T15:07:21;4;4;
42410;PMS5003;28056;51.112;0.984;2022-07-29T15:09:48;4;4;
42410;PMS5003;28056;51.112;0.984;2022-07-29T15:12:15;3;3;
42410;PMS5003;28056;51.112;0.984;2022-07-29T15:14:43;2;2;
42410;PMS5003;28056;51.112;0.984;2022-07-29T15:17:10;3;3;
42410;PMS5003;28056;51.112;0.984;2022-07-29T15:19:37;2;2;
42410;PMS5003;28056;51.112;0.984;2022-07-29T15:22:05;2;2;
42410;PMS5003;28056;51.112;0.984;2022-07-29T15:24:32;2;2;
42410;PMS5003;28056;51.112;0.984;2022-07-29T15:26:59;2;2;
42410;PMS5003;28056;51.112;0.984;2022-07-29T15:29:27;7;4;
42410;PMS5003;28056;51.112;0.984;2022-07-29T15:31:54;3;3;
42410;PMS5003;28056;51.112;0.984;2022-07-29T15:34:21;3;3;
42410;PMS5003;28056;51.112;0.984;2022-07-29T15:36:49;3;3;
42410;PMS5003;28056;51.112;0.984;2022-07-29T15:39:17;8;5;
42410;PMS5003;28056;51.112;0.984;2022-07-29T15:41:44;8;4;
42410;PMS5003;28056;51.112;0.984;2022-07-29T15:44:11;3;3;
42410;PMS5003;28056;51.112;0.984;2022-07-29T15:46:39;3;3;
42410;PMS5003;28056;51.112;0.984;2022-07-29T15:49:06;4;4;
42410;PMS5003;28056;51.112;0.984;2022-07-29T15:51:34;4;2;
42410;PMS5003;28056;51.112;0.984;2022-07-29T15:54:02;4;4;
42410;PMS5003;28056;51.112;0.984;2022-07-29T15:56:31;5;4;
42410;PMS5003;28056;51.112;0.984;2022-07-29T15:58:58;3;3;
42410;PMS5003;28056;51.112;0.984;2022-07-29T16:01:26;5;5;
42410;PMS5003;28056;51.112;0.984;2022-07-29T16:03:53;5;4;
42410;PMS5003;28056;51.112;0.984;2022-07-29T16:06:20;3;3;
42410;PMS5003;28056;51.112;0.984;2022-07-29T16:08:48;5;4;
42410;PMS5003;28056;51.112;0.984;2022-07-29T16:11:15;4;4;
42410;PMS5003;28056;51.112;0.984;2022-07-29T16:13:43;3;3;
42410;PMS5003;28056;51.112;0.984;2022-07-29T16:16:10;5;5;
42410;PMS5003;28056;51.112;0.984;2022-07-29T16:18:37;8;8;
42410;PMS5003;28056;51.112;0.984;2022-07-29T16:21:05;3;3;
42410;PMS5003;28056;51.112;0.984;2022-07-29T16:23:32;2;2;
42410;PMS5003;28056;51.112;0.984;2022-07-29T16:25:59;3;3;
42410;PMS5003;28056;51.112;0.984;2022-07-29T16:28:27;3;3;
42410;PMS5003;28056;51.112;0.984;2022-07-29T16:30:55;4;4;
42410;PMS5003;28056;51.112;0.984;2022-07-29T16:33:23;3;3;
42410;PMS5003;28056;51.112;0.984;2022-07-29T16:35:51;7;5;
42410;PMS5003;28056;51.112;0.984;2022-07-29T16:38:18;4;4;
42410;PMS5003;28056;51.112;0.984;2022-07-29T16:40:46;3;3;
42410;PMS5003;28056;51.112;0.984;2022-07-29T16:43:13;4;4;
42410;PMS5003;28056;51.112;0.984;2022-07-29T16:45:40;3;3;
42410;PMS5003;28056;51.112;0.984;2022-07-29T16:48:08;2;2;
42410;PMS5003;28056;51.112;0.984;2022-07-29T16:50:36;4;4;
42410;PMS5003;28056;51.112;0.984;2022-07-29T16:53:04;4;2;
42410;PMS5003;28056;51.112;0.984;2022-07-29T16:55:31;3;3;
42410;PMS5003;28056;51.112;0.984;2022-07-29T16:57:58;5;3;
42410;PMS5003;28056;51.112;0.984;2022-07-29T17:00:26;3;3;
42410;PMS5003;28056;51.112;0.984;2022-07-29T17:02:53;3;3;
42410;PMS5003;28056;51.112;0.984;2022-07-29T17:05:21;4;4;
42410;PMS5003;28056;51.112;0.984;2022-07-29T17:07:48;4;4;
42410;PMS5003;28056;51.112;0.984;2022-07-29T17:10:21;4;4;